sensor_id;sensor_type;location;lat;lon;timestamp;P1;durP1;ratioP1;P2;durP2;ratioP2
13969;SDS011;7057;49.984;8.404;2022-10-03T00:01:57;8.77;;;6.73;;
13969;SDS011;7057;49.984;8.404;2022-10-03T00:04:45;13.87;;;7.80;;
13969;SDS011;7057;49.984;8.404;2022-10-03T00:07:27;13.50;;;7.83;;
13969;SDS011;7057;49.984;8.404;2022-10-03T00:10:10;11.77;;;8.17;;
13969;SDS011;7057;49.984;8.404;2022-10-03T00:12:57;11.67;;;7.70;;
13969;SDS011;7057;49.984;8.404;2022-10-03T00:15:33;11.50;;;7.50;;
13969;SDS011;7057;49.984;8.404;2022-10-03T00:18:13;13.13;;;7.43;;
13969;SDS011;7057;49.984;8.404;2022-10-03T00:20:59;11.77;;;8.13;;
13969;SDS011;7057;49.984;8.404;2022-10-03T00:23:37;13.30;;;8.00;;
13969;SDS011;7057;49.984;8.404;2022-10-03T00:26:13;12.60;;;8.00;;
13969;SDS011;7057;49.984;8.404;2022-10-03T00:31:48;11.63;;;7.80;;
13969;SDS011;7057;49.984;8.404;2022-10-03T00:34:25;13.17;;;8.10;;
13969;SDS011;7057;49.984;8.404;2022-10-03T00:37:04;15.93;;;9.77;;
13969;SDS011;7057;49.984;8.404;2022-10-03T00:39:50;17.53;;;9.37;;
13969;SDS011;7057;49.984;8.404;2022-10-03T00:42:38;15.13;;;9.37;;
13969;SDS011;7057;49.984;8.404;2022-10-03T00:45:38;14.10;;;9.13;;
13969;SDS011;7057;49.984;8.404;2022-10-03T00:48:23;15.50;;;8.63;;
13969;SDS011;7057;49.984;8.404;2022-10-03T00:51:16;13.83;;;9.43;;
13969;SDS011;7057;49.984;8.404;2022-10-03T00:56:49;14.43;;;9.63;;
13969;SDS011;7057;49.984;8.404;2022-10-03T00:59:32;12.93;;;8.40;;
13969;SDS011;7057;49.984;8.404;2022-10-03T01:02:22;18.10;;;9.43;;
13969;SDS011;7057;49.984;8.404;2022-10-03T01:05:04;16.57;;;8.43;;
13969;SDS011;7057;49.984;8.404;2022-10-03T01:07:53;17.07;;;9.33;;
13969;SDS011;7057;49.984;8.404;2022-10-03T01:10:38;12.37;;;9.57;;
13969;SDS011;7057;49.984;8.404;2022-10-03T01:13:15;15.07;;;9.13;;
13969;SDS011;7057;49.984;8.404;2022-10-03T01:15:54;13.20;;;8.87;;
13969;SDS011;7057;49.984;8.404;2022-10-03T01:18:36;12.77;;;8.87;;
13969;SDS011;7057;49.984;8.404;2022-10-03T01:21:13;12.93;;;8.50;;
13969;SDS011;7057;49.984;8.404;2022-10-03T01:24:02;12.30;;;8.70;;
13969;SDS011;7057;49.984;8.404;2022-10-03T01:26:52;16.70;;;8.50;;
13969;SDS011;7057;49.984;8.404;2022-10-03T01:29:29;13.93;;;9.33;;
13969;SDS011;7057;49.984;8.404;2022-10-03T01:32:25;15.43;;;9.07;;
13969;SDS011;7057;49.984;8.404;2022-10-03T01:34:59;15.60;;;9.27;;
13969;SDS011;7057;49.984;8.404;2022-10-03T01:37:38;14.00;;;9.60;;
13969;SDS011;7057;49.984;8.404;2022-10-03T01:40:16;17.57;;;9.67;;
13969;SDS011;7057;49.984;8.404;2022-10-03T01:42:54;16.53;;;9.80;;
13969;SDS011;7057;49.984;8.404;2022-10-03T01:45:34;15.57;;;9.10;;
13969;SDS011;7057;49.984;8.404;2022-10-03T01:48:13;11.90;;;8.73;;
13969;SDS011;7057;49.984;8.404;2022-10-03T01:50:48;18.00;;;9.87;;
13969;SDS011;7057;49.984;8.404;2022-10-03T01:53:25;14.20;;;9.93;;
13969;SDS011;7057;49.984;8.404;2022-10-03T01:56:02;16.23;;;10.03;;
13969;SDS011;7057;49.984;8.404;2022-10-03T01:58:39;20.20;;;10.17;;
13969;SDS011;7057;49.984;8.404;2022-10-03T02:01:23;19.20;;;10.90;;
13969;SDS011;7057;49.984;8.404;2022-10-03T02:03:56;18.57;;;11.37;;
13969;SDS011;7057;49.984;8.404;2022-10-03T02:06:33;18.43;;;10.93;;
13969;SDS011;7057;49.984;8.404;2022-10-03T02:09:08;16.30;;;10.33;;
13969;SDS011;7057;49.984;8.404;2022-10-03T02:11:59;17.87;;;10.67;;
13969;SDS011;7057;49.984;8.404;2022-10-03T02:14:33;16.53;;;10.00;;
13969;SDS011;7057;49.984;8.404;2022-10-03T02:17:13;22.30;;;10.97;;
13969;SDS011;7057;49.984;8.404;2022-10-03T02:19:54;17.53;;;10.53;;
13969;SDS011;7057;49.984;8.404;2022-10-03T02:22:28;20.73;;;11.13;;
13969;SDS011;7057;49.984;8.404;2022-10-03T02:25:08;20.10;;;11.40;;
13969;SDS011;7057;49.984;8.404;2022-10-03T02:30:58;20.27;;;11.00;;
13969;SDS011;7057;49.984;8.404;2022-10-03T02:33:56;16.90;;;11.13;;
13969;SDS011;7057;49.984;8.404;2022-10-03T02:36:48;16.10;;;10.40;;
13969;SDS011;7057;49.984;8.404;2022-10-03T02:39:38;17.00;;;11.10;;
13969;SDS011;7057;49.984;8.404;2022-10-03T02:54:35;20.93;;;11.23;;
13969;SDS011;7057;49.984;8.404;2022-10-03T02:57:54;16.30;;;10.30;;
13969;SDS011;7057;49.984;8.404;2022-10-03T03:00:56;14.27;;;10.03;;
13969;SDS011;7057;49.984;8.404;2022-10-03T03:03:50;19.93;;;10.27;;
13969;SDS011;7057;49.984;8.404;2022-10-03T03:09:40;16.93;;;10.83;;
13969;SDS011;7057;49.984;8.404;2022-10-03T03:12:28;16.00;;;9.87;;
13969;SDS011;7057;49.984;8.404;2022-10-03T03:15:32;16.90;;;11.30;;
13969;SDS011;7057;49.984;8.404;2022-10-03T03:18:32;18.33;;;11.20;;
13969;SDS011;7057;49.984;8.404;2022-10-03T03:21:09;19.30;;;10.80;;
13969;SDS011;7057;49.984;8.404;2022-10-03T03:23:53;16.70;;;10.67;;
13969;SDS011;7057;49.984;8.404;2022-10-03T03:26:36;17.27;;;9.73;;
13969;SDS011;7057;49.984;8.404;2022-10-03T03:29:32;18.57;;;10.27;;
13969;SDS011;7057;49.984;8.404;2022-10-03T03:32:10;17.70;;;10.97;;
13969;SDS011;7057;49.984;8.404;2022-10-03T03:34:48;17.60;;;10.03;;
13969;SDS011;7057;49.984;8.404;2022-10-03T03:37:22;14.70;;;9.63;;
13969;SDS011;7057;49.984;8.404;2022-10-03T03:39:58;16.10;;;9.93;;
13969;SDS011;7057;49.984;8.404;2022-10-03T03:42:40;18.23;;;11.47;;
13969;SDS011;7057;49.984;8.404;2022-10-03T03:45:29;15.40;;;9.67;;
13969;SDS011;7057;49.984;8.404;2022-10-03T03:48:12;16.17;;;10.23;;
13969;SDS011;7057;49.984;8.404;2022-10-03T03:51:09;21.37;;;10.93;;
13969;SDS011;7057;49.984;8.404;2022-10-03T03:53:58;19.73;;;11.23;;
13969;SDS011;7057;49.984;8.404;2022-10-03T03:56:55;18.90;;;10.27;;
13969;SDS011;7057;49.984;8.404;2022-10-03T03:59:50;17.77;;;10.30;;
13969;SDS011;7057;49.984;8.404;2022-10-03T04:02:37;21.87;;;10.90;;
13969;SDS011;7057;49.984;8.404;2022-10-03T04:05:32;21.77;;;12.07;;
13969;SDS011;7057;49.984;8.404;2022-10-03T04:08:15;25.23;;;11.80;;
13969;SDS011;7057;49.984;8.404;2022-10-03T04:10:52;19.70;;;11.60;;
13969;SDS011;7057;49.984;8.404;2022-10-03T04:13:33;22.60;;;10.70;;
13969;SDS011;7057;49.984;8.404;2022-10-03T04:16:18;19.30;;;10.47;;
13969;SDS011;7057;49.984;8.404;2022-10-03T04:19:18;17.90;;;10.60;;
13969;SDS011;7057;49.984;8.404;2022-10-03T04:21:58;19.87;;;11.17;;
13969;SDS011;7057;49.984;8.404;2022-10-03T04:28:03;19.13;;;11.90;;
13969;SDS011;7057;49.984;8.404;2022-10-03T04:30:44;17.67;;;10.63;;
13969;SDS011;7057;49.984;8.404;2022-10-03T04:33:25;18.43;;;11.70;;
13969;SDS011;7057;49.984;8.404;2022-10-03T04:39:05;18.77;;;12.60;;
13969;SDS011;7057;49.984;8.404;2022-10-03T04:41:41;16.73;;;11.33;;
13969;SDS011;7057;49.984;8.404;2022-10-03T04:44:19;19.70;;;10.90;;
13969;SDS011;7057;49.984;8.404;2022-10-03T04:46:59;15.83;;;10.90;;
13969;SDS011;7057;49.984;8.404;2022-10-03T04:49:34;16.80;;;11.07;;
13969;SDS011;7057;49.984;8.404;2022-10-03T04:52:12;17.67;;;10.60;;
13969;SDS011;7057;49.984;8.404;2022-10-03T04:54:46;18.13;;;10.17;;
13969;SDS011;7057;49.984;8.404;2022-10-03T04:57:21;20.03;;;10.73;;
13969;SDS011;7057;49.984;8.404;2022-10-03T04:59:58;21.17;;;11.37;;
13969;SDS011;7057;49.984;8.404;2022-10-03T05:02:36;16.97;;;10.77;;
13969;SDS011;7057;49.984;8.404;2022-10-03T05:05:24;19.07;;;11.67;;
13969;SDS011;7057;49.984;8.404;2022-10-03T05:08:11;22.30;;;12.20;;
13969;SDS011;7057;49.984;8.404;2022-10-03T05:10:51;18.23;;;10.57;;
13969;SDS011;7057;49.984;8.404;2022-10-03T05:13:31;19.43;;;10.67;;
13969;SDS011;7057;49.984;8.404;2022-10-03T05:16:14;18.90;;;11.40;;
13969;SDS011;7057;49.984;8.404;2022-10-03T05:18:46;20.23;;;11.90;;
13969;SDS011;7057;49.984;8.404;2022-10-03T05:21:25;20.60;;;12.13;;
13969;SDS011;7057;49.984;8.404;2022-10-03T05:24:00;16.10;;;10.23;;
13969;SDS011;7057;49.984;8.404;2022-10-03T05:26:42;19.53;;;11.20;;
13969;SDS011;7057;49.984;8.404;2022-10-03T05:29:16;17.27;;;11.00;;
13969;SDS011;7057;49.984;8.404;2022-10-03T05:31:55;14.73;;;10.77;;
13969;SDS011;7057;49.984;8.404;2022-10-03T05:34:38;19.27;;;10.83;;
13969;SDS011;7057;49.984;8.404;2022-10-03T05:37:27;17.17;;;11.33;;
13969;SDS011;7057;49.984;8.404;2022-10-03T05:40:11;17.30;;;11.00;;
13969;SDS011;7057;49.984;8.404;2022-10-03T05:45:29;18.73;;;11.90;;
13969;SDS011;7057;49.984;8.404;2022-10-03T05:48:10;19.83;;;12.03;;
13969;SDS011;7057;49.984;8.404;2022-10-03T05:50:51;24.17;;;13.07;;
13969;SDS011;7057;49.984;8.404;2022-10-03T05:56:51;24.37;;;12.03;;
13969;SDS011;7057;49.984;8.404;2022-10-03T05:59:48;20.57;;;12.83;;
13969;SDS011;7057;49.984;8.404;2022-10-03T06:02:37;30.07;;;14.80;;
13969;SDS011;7057;49.984;8.404;2022-10-03T06:08:48;21.27;;;13.80;;
13969;SDS011;7057;49.984;8.404;2022-10-03T06:11:31;22.63;;;13.00;;
13969;SDS011;7057;49.984;8.404;2022-10-03T06:14:28;21.90;;;12.80;;
13969;SDS011;7057;49.984;8.404;2022-10-03T06:17:23;24.17;;;12.03;;
13969;SDS011;7057;49.984;8.404;2022-10-03T06:20:10;22.13;;;13.07;;
13969;SDS011;7057;49.984;8.404;2022-10-03T06:23:06;19.40;;;12.13;;
13969;SDS011;7057;49.984;8.404;2022-10-03T06:37:57;23.43;;;14.20;;
13969;SDS011;7057;49.984;8.404;2022-10-03T06:41:03;27.63;;;15.00;;
13969;SDS011;7057;49.984;8.404;2022-10-03T06:44:06;30.27;;;16.27;;
13969;SDS011;7057;49.984;8.404;2022-10-03T06:46:46;25.60;;;14.47;;
13969;SDS011;7057;49.984;8.404;2022-10-03T06:49:51;25.43;;;13.43;;
13969;SDS011;7057;49.984;8.404;2022-10-03T07:01:44;28.63;;;14.10;;
13969;SDS011;7057;49.984;8.404;2022-10-03T07:04:32;25.67;;;15.07;;
13969;SDS011;7057;49.984;8.404;2022-10-03T07:07:30;24.53;;;14.27;;
13969;SDS011;7057;49.984;8.404;2022-10-03T07:10:49;24.17;;;13.53;;
13969;SDS011;7057;49.984;8.404;2022-10-03T07:13:33;23.40;;;13.50;;
13969;SDS011;7057;49.984;8.404;2022-10-03T07:19:33;24.13;;;14.07;;
13969;SDS011;7057;49.984;8.404;2022-10-03T07:25:34;18.50;;;13.27;;
13969;SDS011;7057;49.984;8.404;2022-10-03T07:31:26;25.87;;;13.77;;
13969;SDS011;7057;49.984;8.404;2022-10-03T07:34:12;27.47;;;12.83;;
13969;SDS011;7057;49.984;8.404;2022-10-03T07:37:03;25.10;;;11.93;;
13969;SDS011;7057;49.984;8.404;2022-10-03T07:43:26;23.60;;;11.80;;
13969;SDS011;7057;49.984;8.404;2022-10-03T07:49:23;16.87;;;11.13;;
13969;SDS011;7057;49.984;8.404;2022-10-03T07:52:24;19.30;;;10.57;;
13969;SDS011;7057;49.984;8.404;2022-10-03T07:55:18;17.63;;;9.77;;
13969;SDS011;7057;49.984;8.404;2022-10-03T07:58:02;16.57;;;9.90;;
13969;SDS011;7057;49.984;8.404;2022-10-03T08:00:54;14.27;;;9.93;;
13969;SDS011;7057;49.984;8.404;2022-10-03T08:03:48;17.73;;;9.67;;
13969;SDS011;7057;49.984;8.404;2022-10-03T08:06:37;16.43;;;10.13;;
13969;SDS011;7057;49.984;8.404;2022-10-03T08:09:19;11.47;;;8.87;;
13969;SDS011;7057;49.984;8.404;2022-10-03T08:15:02;13.93;;;9.27;;
13969;SDS011;7057;49.984;8.404;2022-10-03T08:20:41;13.40;;;7.77;;
13969;SDS011;7057;49.984;8.404;2022-10-03T08:26:22;12.70;;;7.97;;
13969;SDS011;7057;49.984;8.404;2022-10-03T08:32:06;13.23;;;7.23;;
13969;SDS011;7057;49.984;8.404;2022-10-03T08:35:01;10.37;;;7.20;;
13969;SDS011;7057;49.984;8.404;2022-10-03T08:38:17;10.17;;;6.33;;
13969;SDS011;7057;49.984;8.404;2022-10-03T08:47:34;12.97;;;7.07;;
13969;SDS011;7057;49.984;8.404;2022-10-03T08:50:28;17.73;;;8.07;;
13969;SDS011;7057;49.984;8.404;2022-10-03T08:56:32;10.97;;;7.07;;
13969;SDS011;7057;49.984;8.404;2022-10-03T08:59:28;13.53;;;7.00;;
13969;SDS011;7057;49.984;8.404;2022-10-03T09:05:32;11.27;;;6.43;;
13969;SDS011;7057;49.984;8.404;2022-10-03T09:08:37;13.77;;;7.03;;
13969;SDS011;7057;49.984;8.404;2022-10-03T09:14:35;15.50;;;6.97;;
13969;SDS011;7057;49.984;8.404;2022-10-03T09:17:22;13.23;;;5.97;;
13969;SDS011;7057;49.984;8.404;2022-10-03T09:20:30;8.90;;;5.63;;
13969;SDS011;7057;49.984;8.404;2022-10-03T09:26:43;11.07;;;6.20;;
13969;SDS011;7057;49.984;8.404;2022-10-03T09:29:40;9.27;;;6.10;;
13969;SDS011;7057;49.984;8.404;2022-10-03T09:35:30;7.93;;;5.60;;
13969;SDS011;7057;49.984;8.404;2022-10-03T09:38:32;11.10;;;5.43;;
13969;SDS011;7057;49.984;8.404;2022-10-03T09:41:37;11.00;;;4.90;;
13969;SDS011;7057;49.984;8.404;2022-10-03T09:44:28;12.63;;;5.80;;
13969;SDS011;7057;49.984;8.404;2022-10-03T09:50:32;8.93;;;4.60;;
13969;SDS011;7057;49.984;8.404;2022-10-03T09:53:43;6.57;;;4.70;;
13969;SDS011;7057;49.984;8.404;2022-10-03T09:56:41;7.97;;;4.43;;
13969;SDS011;7057;49.984;8.404;2022-10-03T10:02:35;7.73;;;4.87;;
13969;SDS011;7057;49.984;8.404;2022-10-03T10:08:35;10.63;;;5.03;;
13969;SDS011;7057;49.984;8.404;2022-10-03T10:11:35;6.47;;;4.57;;
13969;SDS011;7057;49.984;8.404;2022-10-03T10:14:26;10.63;;;4.40;;
13969;SDS011;7057;49.984;8.404;2022-10-03T10:17:40;7.00;;;4.23;;
13969;SDS011;7057;49.984;8.404;2022-10-03T10:20:37;9.47;;;4.47;;
13969;SDS011;7057;49.984;8.404;2022-10-03T10:23:35;8.57;;;4.47;;
13969;SDS011;7057;49.984;8.404;2022-10-03T10:26:18;9.10;;;4.50;;
13969;SDS011;7057;49.984;8.404;2022-10-03T10:29:23;7.93;;;4.30;;
13969;SDS011;7057;49.984;8.404;2022-10-03T10:32:09;8.97;;;3.80;;
13969;SDS011;7057;49.984;8.404;2022-10-03T10:35:17;6.40;;;4.17;;
13969;SDS011;7057;49.984;8.404;2022-10-03T10:44:35;7.10;;;3.97;;
13969;SDS011;7057;49.984;8.404;2022-10-03T10:47:34;5.23;;;3.70;;
13969;SDS011;7057;49.984;8.404;2022-10-03T10:56:48;7.47;;;4.57;;
13969;SDS011;7057;49.984;8.404;2022-10-03T10:59:50;8.40;;;4.50;;
13969;SDS011;7057;49.984;8.404;2022-10-03T11:15:51;8.63;;;4.47;;
13969;SDS011;7057;49.984;8.404;2022-10-03T11:25:18;7.07;;;4.47;;
13969;SDS011;7057;49.984;8.404;2022-10-03T11:28:47;12.07;;;4.77;;
13969;SDS011;7057;49.984;8.404;2022-10-03T11:34:59;5.07;;;4.53;;
13969;SDS011;7057;49.984;8.404;2022-10-03T11:38:00;7.90;;;4.33;;
13969;SDS011;7057;49.984;8.404;2022-10-03T11:40:38;6.03;;;4.23;;
13969;SDS011;7057;49.984;8.404;2022-10-03T11:46:28;7.53;;;4.60;;
13969;SDS011;7057;49.984;8.404;2022-10-03T11:49:12;7.70;;;3.93;;
13969;SDS011;7057;49.984;8.404;2022-10-03T11:51:54;7.67;;;4.33;;
13969;SDS011;7057;49.984;8.404;2022-10-03T11:54:29;5.77;;;4.23;;
13969;SDS011;7057;49.984;8.404;2022-10-03T11:57:05;7.50;;;4.60;;
13969;SDS011;7057;49.984;8.404;2022-10-03T11:59:46;4.93;;;4.20;;
13969;SDS011;7057;49.984;8.404;2022-10-03T12:05:23;5.57;;;3.70;;
13969;SDS011;7057;49.984;8.404;2022-10-03T12:08:05;6.80;;;4.20;;
13969;SDS011;7057;49.984;8.404;2022-10-03T12:11:06;7.00;;;3.60;;
13969;SDS011;7057;49.984;8.404;2022-10-03T12:13:43;5.17;;;3.60;;
13969;SDS011;7057;49.984;8.404;2022-10-03T12:16:28;8.73;;;4.33;;
13969;SDS011;7057;49.984;8.404;2022-10-03T12:19:01;7.03;;;3.97;;
13969;SDS011;7057;49.984;8.404;2022-10-03T12:21:42;6.63;;;4.00;;
13969;SDS011;7057;49.984;8.404;2022-10-03T12:24:23;6.20;;;3.63;;
13969;SDS011;7057;49.984;8.404;2022-10-03T12:26:57;4.10;;;3.53;;
13969;SDS011;7057;49.984;8.404;2022-10-03T12:29:31;5.03;;;3.30;;
13969;SDS011;7057;49.984;8.404;2022-10-03T12:32:08;6.00;;;4.30;;
13969;SDS011;7057;49.984;8.404;2022-10-03T12:34:48;4.53;;;3.87;;
13969;SDS011;7057;49.984;8.404;2022-10-03T12:37:27;5.27;;;3.40;;
13969;SDS011;7057;49.984;8.404;2022-10-03T12:40:10;5.83;;;3.40;;
13969;SDS011;7057;49.984;8.404;2022-10-03T12:42:43;4.73;;;3.50;;
13969;SDS011;7057;49.984;8.404;2022-10-03T12:45:20;6.37;;;3.10;;
13969;SDS011;7057;49.984;8.404;2022-10-03T12:50:45;4.43;;;3.53;;
13969;SDS011;7057;49.984;8.404;2022-10-03T12:53:28;3.80;;;3.03;;
13969;SDS011;7057;49.984;8.404;2022-10-03T12:56:05;6.03;;;3.37;;
13969;SDS011;7057;49.984;8.404;2022-10-03T12:58:42;6.30;;;3.50;;
13969;SDS011;7057;49.984;8.404;2022-10-03T13:01:24;8.10;;;4.03;;
13969;SDS011;7057;49.984;8.404;2022-10-03T13:04:00;5.47;;;4.00;;
13969;SDS011;7057;49.984;8.404;2022-10-03T13:09:30;5.97;;;3.87;;
13969;SDS011;7057;49.984;8.404;2022-10-03T13:12:15;4.93;;;3.43;;
13969;SDS011;7057;49.984;8.404;2022-10-03T13:17:59;4.73;;;3.37;;
13969;SDS011;7057;49.984;8.404;2022-10-03T13:20:33;7.07;;;3.83;;
13969;SDS011;7057;49.984;8.404;2022-10-03T13:23:04;6.97;;;4.10;;
13969;SDS011;7057;49.984;8.404;2022-10-03T13:25:38;6.03;;;3.50;;
13969;SDS011;7057;49.984;8.404;2022-10-03T13:28:11;7.67;;;3.80;;
13969;SDS011;7057;49.984;8.404;2022-10-03T13:30:43;7.07;;;4.90;;
13969;SDS011;7057;49.984;8.404;2022-10-03T13:33:14;6.83;;;3.67;;
13969;SDS011;7057;49.984;8.404;2022-10-03T13:35:46;7.33;;;3.80;;
13969;SDS011;7057;49.984;8.404;2022-10-03T13:41:15;5.20;;;4.07;;
13969;SDS011;7057;49.984;8.404;2022-10-03T13:43:55;7.53;;;5.70;;
13969;SDS011;7057;49.984;8.404;2022-10-03T13:46:28;7.57;;;4.30;;
13969;SDS011;7057;49.984;8.404;2022-10-03T13:48:59;5.83;;;3.70;;
13969;SDS011;7057;49.984;8.404;2022-10-03T13:51:38;6.70;;;4.20;;
13969;SDS011;7057;49.984;8.404;2022-10-03T13:54:13;8.97;;;4.40;;
13969;SDS011;7057;49.984;8.404;2022-10-03T13:56:48;7.60;;;4.57;;
13969;SDS011;7057;49.984;8.404;2022-10-03T13:59:31;5.53;;;4.37;;
13969;SDS011;7057;49.984;8.404;2022-10-03T14:02:15;8.07;;;4.70;;
13969;SDS011;7057;49.984;8.404;2022-10-03T14:04:57;7.57;;;3.63;;
13969;SDS011;7057;49.984;8.404;2022-10-03T14:07:38;5.33;;;3.70;;
13969;SDS011;7057;49.984;8.404;2022-10-03T14:10:17;8.63;;;4.23;;
13969;SDS011;7057;49.984;8.404;2022-10-03T14:13:03;9.77;;;4.60;;
13969;SDS011;7057;49.984;8.404;2022-10-03T14:15:46;8.27;;;4.20;;
13969;SDS011;7057;49.984;8.404;2022-10-03T14:18:24;6.57;;;4.03;;
13969;SDS011;7057;49.984;8.404;2022-10-03T14:21:21;6.10;;;4.17;;
13969;SDS011;7057;49.984;8.404;2022-10-03T14:24:11;5.10;;;3.93;;
13969;SDS011;7057;49.984;8.404;2022-10-03T14:26:50;7.80;;;4.00;;
13969;SDS011;7057;49.984;8.404;2022-10-03T14:29:25;5.93;;;5.33;;
13969;SDS011;7057;49.984;8.404;2022-10-03T14:32:00;6.30;;;3.73;;
13969;SDS011;7057;49.984;8.404;2022-10-03T14:34:37;5.10;;;3.93;;
13969;SDS011;7057;49.984;8.404;2022-10-03T14:37:14;4.97;;;3.73;;
13969;SDS011;7057;49.984;8.404;2022-10-03T14:39:51;7.53;;;4.10;;
13969;SDS011;7057;49.984;8.404;2022-10-03T14:42:40;5.07;;;3.93;;
13969;SDS011;7057;49.984;8.404;2022-10-03T14:45:21;7.27;;;4.43;;
13969;SDS011;7057;49.984;8.404;2022-10-03T14:47:54;7.90;;;4.70;;
13969;SDS011;7057;49.984;8.404;2022-10-03T14:50:27;6.37;;;3.43;;
13969;SDS011;7057;49.984;8.404;2022-10-03T14:52:56;6.27;;;3.53;;
13969;SDS011;7057;49.984;8.404;2022-10-03T14:55:29;6.63;;;3.20;;
13969;SDS011;7057;49.984;8.404;2022-10-03T14:57:59;5.77;;;3.20;;
13969;SDS011;7057;49.984;8.404;2022-10-03T15:00:37;6.07;;;3.80;;
13969;SDS011;7057;49.984;8.404;2022-10-03T15:03:12;6.67;;;3.20;;
13969;SDS011;7057;49.984;8.404;2022-10-03T15:08:53;6.33;;;4.07;;
13969;SDS011;7057;49.984;8.404;2022-10-03T15:11:25;5.43;;;3.73;;
13969;SDS011;7057;49.984;8.404;2022-10-03T15:13:56;4.83;;;3.17;;
13969;SDS011;7057;49.984;8.404;2022-10-03T15:16:28;7.90;;;4.43;;
13969;SDS011;7057;49.984;8.404;2022-10-03T15:19:00;4.80;;;3.27;;
13969;SDS011;7057;49.984;8.404;2022-10-03T15:21:31;6.40;;;3.70;;
13969;SDS011;7057;49.984;8.404;2022-10-03T15:23:59;4.70;;;3.50;;
13969;SDS011;7057;49.984;8.404;2022-10-03T15:26:31;4.57;;;3.53;;
13969;SDS011;7057;49.984;8.404;2022-10-03T15:29:01;5.97;;;3.90;;
13969;SDS011;7057;49.984;8.404;2022-10-03T15:31:33;6.33;;;4.03;;
13969;SDS011;7057;49.984;8.404;2022-10-03T15:34:03;8.70;;;4.40;;
13969;SDS011;7057;49.984;8.404;2022-10-03T15:36:33;5.77;;;3.80;;
13969;SDS011;7057;49.984;8.404;2022-10-03T15:39:04;4.77;;;3.43;;
13969;SDS011;7057;49.984;8.404;2022-10-03T15:41:47;3.73;;;3.23;;
13969;SDS011;7057;49.984;8.404;2022-10-03T15:44:19;5.50;;;3.63;;
13969;SDS011;7057;49.984;8.404;2022-10-03T15:46:55;6.23;;;4.37;;
13969;SDS011;7057;49.984;8.404;2022-10-03T15:49:26;5.70;;;4.00;;
13969;SDS011;7057;49.984;8.404;2022-10-03T15:51:58;11.23;;;3.40;;
13969;SDS011;7057;49.984;8.404;2022-10-03T15:54:33;5.73;;;3.53;;
13969;SDS011;7057;49.984;8.404;2022-10-03T15:57:03;5.83;;;3.83;;
13969;SDS011;7057;49.984;8.404;2022-10-03T15:59:33;5.53;;;3.97;;
13969;SDS011;7057;49.984;8.404;2022-10-03T16:02:05;6.07;;;3.80;;
13969;SDS011;7057;49.984;8.404;2022-10-03T16:04:38;6.17;;;3.60;;
13969;SDS011;7057;49.984;8.404;2022-10-03T16:07:11;7.00;;;4.13;;
13969;SDS011;7057;49.984;8.404;2022-10-03T16:09:49;4.77;;;3.60;;
13969;SDS011;7057;49.984;8.404;2022-10-03T16:12:34;6.50;;;3.60;;
13969;SDS011;7057;49.984;8.404;2022-10-03T16:15:15;5.57;;;3.60;;
13969;SDS011;7057;49.984;8.404;2022-10-03T16:17:49;6.13;;;3.67;;
13969;SDS011;7057;49.984;8.404;2022-10-03T16:20:19;4.37;;;3.80;;
13969;SDS011;7057;49.984;8.404;2022-10-03T16:22:50;4.50;;;3.43;;
13969;SDS011;7057;49.984;8.404;2022-10-03T16:25:20;4.10;;;3.70;;
13969;SDS011;7057;49.984;8.404;2022-10-03T16:27:51;6.30;;;3.57;;
13969;SDS011;7057;49.984;8.404;2022-10-03T16:30:25;8.57;;;4.33;;
13969;SDS011;7057;49.984;8.404;2022-10-03T16:33:00;7.10;;;4.33;;
13969;SDS011;7057;49.984;8.404;2022-10-03T16:35:34;6.93;;;3.67;;
13969;SDS011;7057;49.984;8.404;2022-10-03T16:38:07;7.00;;;4.83;;
13969;SDS011;7057;49.984;8.404;2022-10-03T16:40:49;6.63;;;4.73;;
13969;SDS011;7057;49.984;8.404;2022-10-03T16:43:19;6.93;;;4.30;;
13969;SDS011;7057;49.984;8.404;2022-10-03T16:45:49;8.07;;;4.53;;
13969;SDS011;7057;49.984;8.404;2022-10-03T16:48:20;5.20;;;4.37;;
13969;SDS011;7057;49.984;8.404;2022-10-03T16:51:12;7.30;;;4.80;;
13969;SDS011;7057;49.984;8.404;2022-10-03T16:53:46;6.90;;;5.63;;
13969;SDS011;7057;49.984;8.404;2022-10-03T16:56:16;6.33;;;4.60;;
13969;SDS011;7057;49.984;8.404;2022-10-03T16:58:49;5.23;;;4.33;;
13969;SDS011;7057;49.984;8.404;2022-10-03T17:01:24;7.03;;;5.00;;
13969;SDS011;7057;49.984;8.404;2022-10-03T17:04:01;8.33;;;4.77;;
13969;SDS011;7057;49.984;8.404;2022-10-03T17:06:44;9.50;;;4.43;;
13969;SDS011;7057;49.984;8.404;2022-10-03T17:09:18;9.27;;;4.93;;
13969;SDS011;7057;49.984;8.404;2022-10-03T17:11:51;7.87;;;4.50;;
13969;SDS011;7057;49.984;8.404;2022-10-03T17:14:20;8.63;;;4.80;;
13969;SDS011;7057;49.984;8.404;2022-10-03T17:16:54;7.43;;;4.57;;
13969;SDS011;7057;49.984;8.404;2022-10-03T17:19:30;8.37;;;5.33;;
13969;SDS011;7057;49.984;8.404;2022-10-03T17:22:04;7.73;;;5.20;;
13969;SDS011;7057;49.984;8.404;2022-10-03T17:24:41;8.90;;;5.17;;
13969;SDS011;7057;49.984;8.404;2022-10-03T17:27:16;8.80;;;5.37;;
13969;SDS011;7057;49.984;8.404;2022-10-03T17:29:50;10.30;;;5.07;;
13969;SDS011;7057;49.984;8.404;2022-10-03T17:32:22;8.77;;;6.13;;
13969;SDS011;7057;49.984;8.404;2022-10-03T17:34:56;11.17;;;6.80;;
13969;SDS011;7057;49.984;8.404;2022-10-03T17:40:18;8.30;;;5.63;;
13969;SDS011;7057;49.984;8.404;2022-10-03T17:42:50;10.67;;;6.10;;
13969;SDS011;7057;49.984;8.404;2022-10-03T17:45:27;10.37;;;5.73;;
13969;SDS011;7057;49.984;8.404;2022-10-03T17:47:59;6.97;;;5.23;;
13969;SDS011;7057;49.984;8.404;2022-10-03T17:50:36;9.33;;;5.43;;
13969;SDS011;7057;49.984;8.404;2022-10-03T17:53:14;7.97;;;5.23;;
13969;SDS011;7057;49.984;8.404;2022-10-03T17:55:45;10.00;;;5.63;;
13969;SDS011;7057;49.984;8.404;2022-10-03T17:58:16;10.47;;;5.37;;
13969;SDS011;7057;49.984;8.404;2022-10-03T18:00:53;8.17;;;5.53;;
13969;SDS011;7057;49.984;8.404;2022-10-03T18:03:27;11.27;;;6.60;;
13969;SDS011;7057;49.984;8.404;2022-10-03T18:06:23;9.97;;;5.83;;
13969;SDS011;7057;49.984;8.404;2022-10-03T18:09:22;10.03;;;6.17;;
13969;SDS011;7057;49.984;8.404;2022-10-03T18:11:52;9.90;;;5.97;;
13969;SDS011;7057;49.984;8.404;2022-10-03T18:14:35;7.60;;;5.20;;
13969;SDS011;7057;49.984;8.404;2022-10-03T18:17:13;12.10;;;6.40;;
13969;SDS011;7057;49.984;8.404;2022-10-03T18:19:47;8.90;;;5.87;;
13969;SDS011;7057;49.984;8.404;2022-10-03T18:22:25;10.27;;;5.73;;
13969;SDS011;7057;49.984;8.404;2022-10-03T18:24:57;9.03;;;5.37;;
13969;SDS011;7057;49.984;8.404;2022-10-03T18:27:53;8.57;;;5.73;;
13969;SDS011;7057;49.984;8.404;2022-10-03T18:30:31;9.93;;;6.17;;
13969;SDS011;7057;49.984;8.404;2022-10-03T18:33:01;8.10;;;5.40;;
13969;SDS011;7057;49.984;8.404;2022-10-03T18:35:35;8.73;;;5.87;;
13969;SDS011;7057;49.984;8.404;2022-10-03T18:38:13;10.63;;;6.07;;
13969;SDS011;7057;49.984;8.404;2022-10-03T18:40:47;10.80;;;6.17;;
13969;SDS011;7057;49.984;8.404;2022-10-03T18:43:29;10.07;;;5.80;;
13969;SDS011;7057;49.984;8.404;2022-10-03T18:46:02;12.20;;;6.03;;
13969;SDS011;7057;49.984;8.404;2022-10-03T18:48:37;9.20;;;5.93;;
13969;SDS011;7057;49.984;8.404;2022-10-03T18:51:12;9.87;;;5.63;;
13969;SDS011;7057;49.984;8.404;2022-10-03T18:53:46;17.93;;;8.43;;
13969;SDS011;7057;49.984;8.404;2022-10-03T18:56:20;14.13;;;9.03;;
13969;SDS011;7057;49.984;8.404;2022-10-03T18:58:55;13.30;;;8.40;;
13969;SDS011;7057;49.984;8.404;2022-10-03T19:01:35;16.27;;;8.97;;
13969;SDS011;7057;49.984;8.404;2022-10-03T19:04:08;13.60;;;8.37;;
13969;SDS011;7057;49.984;8.404;2022-10-03T19:06:40;14.10;;;8.33;;
13969;SDS011;7057;49.984;8.404;2022-10-03T19:09:17;14.10;;;8.93;;
13969;SDS011;7057;49.984;8.404;2022-10-03T19:11:49;13.00;;;8.03;;
13969;SDS011;7057;49.984;8.404;2022-10-03T19:14:24;14.73;;;8.57;;
13969;SDS011;7057;49.984;8.404;2022-10-03T19:17:00;12.93;;;7.87;;
13969;SDS011;7057;49.984;8.404;2022-10-03T19:19:46;13.60;;;7.70;;
13969;SDS011;7057;49.984;8.404;2022-10-03T19:22:19;12.57;;;7.87;;